sensor_id;sensor_type;location;lat;lon;timestamp;temperature;humidity
981;DHT22;479;53.514;9.994;2023-04-06T00:01:12;4.70;99.90
981;DHT22;479;53.514;9.994;2023-04-06T00:03:39;4.60;99.90
981;DHT22;479;53.514;9.994;2023-04-06T00:06:08;4.70;99.90
981;DHT22;479;53.514;9.994;2023-04-06T00:08:35;4.70;99.90
981;DHT22;479;53.514;9.994;2023-04-06T00:11:02;4.70;99.90
981;DHT22;479;53.514;9.994;2023-04-06T00:13:29;4.60;99.90
981;DHT22;479;53.514;9.994;2023-04-06T00:15:56;4.50;99.90
981;DHT22;479;53.514;9.994;2023-04-06T00:18:24;4.50;99.90
981;DHT22;479;53.514;9.994;2023-04-06T00:20:51;4.50;99.90
981;DHT22;479;53.514;9.994;2023-04-06T00:23:19;4.50;99.90
981;DHT22;479;53.514;9.994;2023-04-06T00:25:46;4.50;99.90
981;DHT22;479;53.514;9.994;2023-04-06T00:28:13;4.40;99.90
981;DHT22;479;53.514;9.994;2023-04-06T00:30:43;4.40;99.90
981;DHT22;479;53.514;9.994;2023-04-06T00:33:10;4.40;99.90
981;DHT22;479;53.514;9.994;2023-04-06T00:35:37;4.40;99.90
981;DHT22;479;53.514;9.994;2023-04-06T00:38:04;4.40;99.90
981;DHT22;479;53.514;9.994;2023-04-06T00:40:33;4.40;99.90
981;DHT22;479;53.514;9.994;2023-04-06T00:43:01;4.30;99.90
981;DHT22;479;53.514;9.994;2023-04-06T00:45:28;4.30;99.90
981;DHT22;479;53.514;9.994;2023-04-06T00:47:56;4.30;99.90
981;DHT22;479;53.514;9.994;2023-04-06T00:50:23;4.30;99.90
981;DHT22;479;53.514;9.994;2023-04-06T00:52:50;4.40;99.90
981;DHT22;479;53.514;9.994;2023-04-06T00:55:23;4.40;99.90
981;DHT22;479;53.514;9.994;2023-04-06T00:57:52;4.40;99.90
981;DHT22;479;53.514;9.994;2023-04-06T01:00:19;4.40;99.90
981;DHT22;479;53.514;9.994;2023-04-06T01:02:51;4.30;99.90
981;DHT22;479;53.514;9.994;2023-04-06T01:05:21;4.10;99.90
981;DHT22;479;53.514;9.994;2023-04-06T01:07:52;4.00;99.90
981;DHT22;479;53.514;9.994;2023-04-06T01:10:24;4.00;99.90
981;DHT22;479;53.514;9.994;2023-04-06T01:12:57;4.00;99.90
981;DHT22;479;53.514;9.994;2023-04-06T01:15:43;4.00;99.90
981;DHT22;479;53.514;9.994;2023-04-06T01:18:15;4.00;99.90
981;DHT22;479;53.514;9.994;2023-04-06T01:20:51;4.00;99.90
981;DHT22;479;53.514;9.994;2023-04-06T01:23:20;4.00;99.90
981;DHT22;479;53.514;9.994;2023-04-06T01:25:47;4.00;99.90
981;DHT22;479;53.514;9.994;2023-04-06T01:28:14;4.00;99.90
981;DHT22;479;53.514;9.994;2023-04-06T01:30:53;4.00;99.90
981;DHT22;479;53.514;9.994;2023-04-06T01:33:40;3.90;99.90
981;DHT22;479;53.514;9.994;2023-04-06T01:36:11;3.90;99.90
981;DHT22;479;53.514;9.994;2023-04-06T01:38:40;3.90;99.90
981;DHT22;479;53.514;9.994;2023-04-06T01:41:08;3.80;99.90
981;DHT22;479;53.514;9.994;2023-04-06T01:43:49;3.90;99.90
981;DHT22;479;53.514;9.994;2023-04-06T01:46:21;3.80;99.90
981;DHT22;479;53.514;9.994;2023-04-06T01:48:48;3.80;99.90
981;DHT22;479;53.514;9.994;2023-04-06T01:51:36;3.80;99.90
981;DHT22;479;53.514;9.994;2023-04-06T01:54:07;3.80;99.90
981;DHT22;479;53.514;9.994;2023-04-06T01:56:54;3.70;99.90
981;DHT22;479;53.514;9.994;2023-04-06T01:59:47;3.70;99.90
981;DHT22;479;53.514;9.994;2023-04-06T02:02:21;3.60;99.90
981;DHT22;479;53.514;9.994;2023-04-06T02:04:59;3.60;99.90
981;DHT22;479;53.514;9.994;2023-04-06T02:07:27;3.60;99.90
981;DHT22;479;53.514;9.994;2023-04-06T02:09:56;3.60;99.90
981;DHT22;479;53.514;9.994;2023-04-06T02:12:32;3.60;99.90
981;DHT22;479;53.514;9.994;2023-04-06T02:15:00;3.60;99.90
981;DHT22;479;53.514;9.994;2023-04-06T02:17:27;3.60;99.90
981;DHT22;479;53.514;9.994;2023-04-06T02:19:54;3.50;99.90
981;DHT22;479;53.514;9.994;2023-04-06T02:22:21;3.50;99.90
981;DHT22;479;53.514;9.994;2023-04-06T02:24:48;3.50;99.90
981;DHT22;479;53.514;9.994;2023-04-06T02:27:16;3.40;99.90
981;DHT22;479;53.514;9.994;2023-04-06T02:29:46;3.40;99.90
981;DHT22;479;53.514;9.994;2023-04-06T02:32:17;3.30;99.90
981;DHT22;479;53.514;9.994;2023-04-06T02:34:44;3.30;99.90
981;DHT22;479;53.514;9.994;2023-04-06T02:37:11;3.20;99.90
981;DHT22;479;53.514;9.994;2023-04-06T02:39:38;3.20;99.90
981;DHT22;479;53.514;9.994;2023-04-06T02:42:07;3.20;99.90
981;DHT22;479;53.514;9.994;2023-04-06T02:44:36;3.30;99.90
981;DHT22;479;53.514;9.994;2023-04-06T02:47:03;3.20;99.90
981;DHT22;479;53.514;9.994;2023-04-06T02:49:30;3.20;99.90
981;DHT22;479;53.514;9.994;2023-04-06T02:51:59;3.10;99.90
981;DHT22;479;53.514;9.994;2023-04-06T02:54:32;3.20;99.90
981;DHT22;479;53.514;9.994;2023-04-06T02:57:00;3.10;99.90
981;DHT22;479;53.514;9.994;2023-04-06T02:59:40;3.10;99.90
981;DHT22;479;53.514;9.994;2023-04-06T03:02:13;2.90;99.90
981;DHT22;479;53.514;9.994;2023-04-06T03:04:41;2.70;99.90
981;DHT22;479;53.514;9.994;2023-04-06T03:07:19;2.70;99.90
981;DHT22;479;53.514;9.994;2023-04-06T03:09:46;2.70;99.90
981;DHT22;479;53.514;9.994;2023-04-06T03:12:13;2.80;99.90
981;DHT22;479;53.514;9.994;2023-04-06T03:15:01;2.90;99.90
981;DHT22;479;53.514;9.994;2023-04-06T03:17:29;2.90;99.90
981;DHT22;479;53.514;9.994;2023-04-06T03:20:00;2.90;99.90
981;DHT22;479;53.514;9.994;2023-04-06T03:22:29;2.90;99.90
981;DHT22;479;53.514;9.994;2023-04-06T03:24:57;2.90;99.90
981;DHT22;479;53.514;9.994;2023-04-06T03:27:25;2.90;99.90
981;DHT22;479;53.514;9.994;2023-04-06T03:29:52;2.90;99.90
981;DHT22;479;53.514;9.994;2023-04-06T03:32:27;2.80;99.90
981;DHT22;479;53.514;9.994;2023-04-06T03:34:54;2.80;99.90
981;DHT22;479;53.514;9.994;2023-04-06T03:37:21;2.80;99.90
981;DHT22;479;53.514;9.994;2023-04-06T03:39:52;2.80;99.90
981;DHT22;479;53.514;9.994;2023-04-06T03:42:22;2.80;99.90
981;DHT22;479;53.514;9.994;2023-04-06T03:44:58;2.70;99.90
981;DHT22;479;53.514;9.994;2023-04-06T03:47:27;2.70;99.90
981;DHT22;479;53.514;9.994;2023-04-06T03:49:58;2.70;99.90
981;DHT22;479;53.514;9.994;2023-04-06T03:52:25;2.70;99.90
981;DHT22;479;53.514;9.994;2023-04-06T03:54:52;2.60;99.90
981;DHT22;479;53.514;9.994;2023-04-06T03:57:20;2.60;99.90
981;DHT22;479;53.514;9.994;2023-04-06T03:59:47;2.60;99.90
981;DHT22;479;53.514;9.994;2023-04-06T04:02:14;2.60;99.90
981;DHT22;479;53.514;9.994;2023-04-06T04:04:42;2.60;99.90
981;DHT22;479;53.514;9.994;2023-04-06T04:07:09;2.60;99.90
981;DHT22;479;53.514;9.994;2023-04-06T04:09:37;2.60;99.90
981;DHT22;479;53.514;9.994;2023-04-06T04:12:04;2.50;99.90
981;DHT22;479;53.514;9.994;2023-04-06T04:14:31;2.60;99.90
981;DHT22;479;53.514;9.994;2023-04-06T04:16:58;2.40;99.90
981;DHT22;479;53.514;9.994;2023-04-06T04:19:25;2.30;99.90
981;DHT22;479;53.514;9.994;2023-04-06T04:21:56;2.20;99.90
981;DHT22;479;53.514;9.994;2023-04-06T04:24:30;2.20;99.90
981;DHT22;479;53.514;9.994;2023-04-06T04:26:59;2.40;99.90
981;DHT22;479;53.514;9.994;2023-04-06T04:29:27;2.60;99.90
981;DHT22;479;53.514;9.994;2023-04-06T04:31:58;2.60;99.90
981;DHT22;479;53.514;9.994;2023-04-06T04:34:26;2.40;99.90
981;DHT22;479;53.514;9.994;2023-04-06T04:36:53;2.50;99.90
981;DHT22;479;53.514;9.994;2023-04-06T04:39:31;2.40;99.90
981;DHT22;479;53.514;9.994;2023-04-06T04:42:03;2.30;99.90
981;DHT22;479;53.514;9.994;2023-04-06T04:44:33;2.20;99.90
981;DHT22;479;53.514;9.994;2023-04-06T04:47:00;2.10;99.90
981;DHT22;479;53.514;9.994;2023-04-06T04:49:38;2.10;99.90
981;DHT22;479;53.514;9.994;2023-04-06T04:52:06;2.20;99.90
981;DHT22;479;53.514;9.994;2023-04-06T04:54:47;2.20;99.90
981;DHT22;479;53.514;9.994;2023-04-06T04:57:22;2.10;99.90
981;DHT22;479;53.514;9.994;2023-04-06T04:59:49;2.10;99.90
981;DHT22;479;53.514;9.994;2023-04-06T05:02:18;2.10;99.90
981;DHT22;479;53.514;9.994;2023-04-06T05:04:53;2.10;99.90
981;DHT22;479;53.514;9.994;2023-04-06T05:07:24;2.10;99.90
981;DHT22;479;53.514;9.994;2023-04-06T05:09:54;2.20;99.90
981;DHT22;479;53.514;9.994;2023-04-06T05:12:25;2.20;99.90
981;DHT22;479;53.514;9.994;2023-04-06T05:15:03;2.20;99.90
981;DHT22;479;53.514;9.994;2023-04-06T05:17:31;2.20;99.90
981;DHT22;479;53.514;9.994;2023-04-06T05:19:59;2.20;99.90
981;DHT22;479;53.514;9.994;2023-04-06T05:22:28;2.30;99.90
981;DHT22;479;53.514;9.994;2023-04-06T05:25:08;2.30;99.90
981;DHT22;479;53.514;9.994;2023-04-06T05:27:36;2.30;99.90
981;DHT22;479;53.514;9.994;2023-04-06T05:30:09;2.10;99.90
981;DHT22;479;53.514;9.994;2023-04-06T05:32:41;2.20;99.90
981;DHT22;479;53.514;9.994;2023-04-06T05:35:10;2.30;99.90
981;DHT22;479;53.514;9.994;2023-04-06T05:37:39;2.30;99.90
981;DHT22;479;53.514;9.994;2023-04-06T05:40:09;2.30;99.90
981;DHT22;479;53.514;9.994;2023-04-06T05:42:36;2.30;99.90
981;DHT22;479;53.514;9.994;2023-04-06T05:45:05;2.30;99.90
981;DHT22;479;53.514;9.994;2023-04-06T05:47:32;2.30;99.90
981;DHT22;479;53.514;9.994;2023-04-06T05:50:08;2.50;99.90
981;DHT22;479;53.514;9.994;2023-04-06T05:52:38;2.50;99.90
981;DHT22;479;53.514;9.994;2023-04-06T05:55:12;2.50;99.90
981;DHT22;479;53.514;9.994;2023-04-06T05:57:43;2.60;99.90
981;DHT22;479;53.514;9.994;2023-04-06T06:00:13;2.60;99.90
981;DHT22;479;53.514;9.994;2023-04-06T06:02:49;2.60;99.90
981;DHT22;479;53.514;9.994;2023-04-06T06:05:19;2.70;99.90
981;DHT22;479;53.514;9.994;2023-04-06T06:07:48;2.80;99.90
981;DHT22;479;53.514;9.994;2023-04-06T06:10:17;2.80;99.90
981;DHT22;479;53.514;9.994;2023-04-06T06:12:44;2.80;99.90
981;DHT22;479;53.514;9.994;2023-04-06T06:15:12;2.90;99.90
981;DHT22;479;53.514;9.994;2023-04-06T06:17:44;2.90;99.90
981;DHT22;479;53.514;9.994;2023-04-06T06:20:11;3.00;99.90
981;DHT22;479;53.514;9.994;2023-04-06T06:22:39;3.10;99.90
981;DHT22;479;53.514;9.994;2023-04-06T06:25:10;3.20;99.90
981;DHT22;479;53.514;9.994;2023-04-06T06:27:38;3.30;99.90
981;DHT22;479;53.514;9.994;2023-04-06T06:30:06;3.40;99.90
981;DHT22;479;53.514;9.994;2023-04-06T06:32:35;3.50;99.90
981;DHT22;479;53.514;9.994;2023-04-06T06:35:03;3.70;99.90
981;DHT22;479;53.514;9.994;2023-04-06T06:37:30;3.80;99.90
981;DHT22;479;53.514;9.994;2023-04-06T06:39:57;3.90;99.90
981;DHT22;479;53.514;9.994;2023-04-06T06:42:24;4.00;99.90
981;DHT22;479;53.514;9.994;2023-04-06T06:45:04;4.10;99.90
981;DHT22;479;53.514;9.994;2023-04-06T06:47:31;4.30;99.90
981;DHT22;479;53.514;9.994;2023-04-06T06:49:58;4.50;99.90
981;DHT22;479;53.514;9.994;2023-04-06T06:52:25;5.10;99.90
981;DHT22;479;53.514;9.994;2023-04-06T06:54:54;5.70;99.90
981;DHT22;479;53.514;9.994;2023-04-06T06:57:22;6.40;99.90
981;DHT22;479;53.514;9.994;2023-04-06T06:59:49;7.10;99.90
981;DHT22;479;53.514;9.994;2023-04-06T07:02:19;7.70;99.90
981;DHT22;479;53.514;9.994;2023-04-06T07:04:47;8.10;99.90
981;DHT22;479;53.514;9.994;2023-04-06T07:07:15;8.70;99.90
981;DHT22;479;53.514;9.994;2023-04-06T07:09:42;9.30;97.40
981;DHT22;479;53.514;9.994;2023-04-06T07:12:10;9.30;92.70
981;DHT22;479;53.514;9.994;2023-04-06T07:14:37;9.50;90.90
981;DHT22;479;53.514;9.994;2023-04-06T07:17:04;9.20;87.70
981;DHT22;479;53.514;9.994;2023-04-06T07:19:32;9.70;85.80
981;DHT22;479;53.514;9.994;2023-04-06T07:21:59;9.90;80.10
981;DHT22;479;53.514;9.994;2023-04-06T07:24:28;10.20;77.80
981;DHT22;479;53.514;9.994;2023-04-06T07:26:55;10.60;75.30
981;DHT22;479;53.514;9.994;2023-04-06T07:29:22;10.90;73.60
981;DHT22;479;53.514;9.994;2023-04-06T07:31:49;11.30;69.00
981;DHT22;479;53.514;9.994;2023-04-06T07:34:16;11.60;67.20
981;DHT22;479;53.514;9.994;2023-04-06T07:36:45;11.80;62.30
981;DHT22;479;53.514;9.994;2023-04-06T07:39:13;12.00;60.00
981;DHT22;479;53.514;9.994;2023-04-06T07:41:40;11.70;59.80
981;DHT22;479;53.514;9.994;2023-04-06T07:44:07;12.00;59.10
981;DHT22;479;53.514;9.994;2023-04-06T07:46:34;12.20;56.30
981;DHT22;479;53.514;9.994;2023-04-06T07:49:02;12.10;56.00
981;DHT22;479;53.514;9.994;2023-04-06T07:51:31;12.30;56.50
981;DHT22;479;53.514;9.994;2023-04-06T07:54:00;12.70;55.50
981;DHT22;479;53.514;9.994;2023-04-06T07:56:27;12.80;54.80
981;DHT22;479;53.514;9.994;2023-04-06T07:58:54;13.00;53.00
981;DHT22;479;53.514;9.994;2023-04-06T08:01:22;12.80;52.80
981;DHT22;479;53.514;9.994;2023-04-06T08:03:49;13.20;52.80
981;DHT22;479;53.514;9.994;2023-04-06T08:06:16;13.30;51.10
981;DHT22;479;53.514;9.994;2023-04-06T08:08:43;14.00;51.00
981;DHT22;479;53.514;9.994;2023-04-06T08:11:12;14.60;50.10
981;DHT22;479;53.514;9.994;2023-04-06T08:13:39;14.60;49.00
981;DHT22;479;53.514;9.994;2023-04-06T08:16:06;14.80;47.40
981;DHT22;479;53.514;9.994;2023-04-06T08:18:33;14.60;46.60
981;DHT22;479;53.514;9.994;2023-04-06T08:21:00;15.20;46.10
981;DHT22;479;53.514;9.994;2023-04-06T08:23:27;15.10;45.20
981;DHT22;479;53.514;9.994;2023-04-06T08:25:55;15.50;44.10
981;DHT22;479;53.514;9.994;2023-04-06T08:28:30;15.60;41.20
981;DHT22;479;53.514;9.994;2023-04-06T08:31:03;15.60;40.70
981;DHT22;479;53.514;9.994;2023-04-06T08:33:31;15.60;40.10
981;DHT22;479;53.514;9.994;2023-04-06T08:36:07;15.60;39.90
981;DHT22;479;53.514;9.994;2023-04-06T08:38:37;15.50;39.20
981;DHT22;479;53.514;9.994;2023-04-06T08:41:07;15.80;39.70
981;DHT22;479;53.514;9.994;2023-04-06T08:43:41;15.60;37.40
981;DHT22;479;53.514;9.994;2023-04-06T08:46:10;15.60;39.00
981;DHT22;479;53.514;9.994;2023-04-06T08:48:39;15.60;37.90
981;DHT22;479;53.514;9.994;2023-04-06T08:51:06;15.60;37.60
981;DHT22;479;53.514;9.994;2023-04-06T08:53:34;15.80;37.70
981;DHT22;479;53.514;9.994;2023-04-06T08:56:03;15.50;38.80
981;DHT22;479;53.514;9.994;2023-04-06T08:58:34;15.70;37.60
981;DHT22;479;53.514;9.994;2023-04-06T09:01:06;15.70;37.50
981;DHT22;479;53.514;9.994;2023-04-06T09:03:37;15.80;38.20
981;DHT22;479;53.514;9.994;2023-04-06T09:06:05;15.90;36.90
981;DHT22;479;53.514;9.994;2023-04-06T09:08:33;16.30;36.60
981;DHT22;479;53.514;9.994;2023-04-06T09:11:01;15.70;35.10
981;DHT22;479;53.514;9.994;2023-04-06T09:13:28;16.20;35.80
981;DHT22;479;53.514;9.994;2023-04-06T09:15:59;16.40;35.00
981;DHT22;479;53.514;9.994;2023-04-06T09:18:32;16.30;34.10
981;DHT22;479;53.514;9.994;2023-04-06T09:21:00;15.80;34.40
981;DHT22;479;53.514;9.994;2023-04-06T09:23:28;15.80;34.90
981;DHT22;479;53.514;9.994;2023-04-06T09:26:09;16.00;34.40
981;DHT22;479;53.514;9.994;2023-04-06T09:28:45;15.80;35.40
981;DHT22;479;53.514;9.994;2023-04-06T09:31:13;16.50;34.60
981;DHT22;479;53.514;9.994;2023-04-06T09:33:43;16.00;32.40
981;DHT22;479;53.514;9.994;2023-04-06T09:36:10;16.00;33.70
981;DHT22;479;53.514;9.994;2023-04-06T09:38:38;16.10;33.90
981;DHT22;479;53.514;9.994;2023-04-06T09:41:05;16.30;31.30
981;DHT22;479;53.514;9.994;2023-04-06T09:43:33;16.20;30.30
981;DHT22;479;53.514;9.994;2023-04-06T09:46:00;15.50;30.00
981;DHT22;479;53.514;9.994;2023-04-06T09:48:31;15.60;30.70
981;DHT22;479;53.514;9.994;2023-04-06T09:51:05;15.80;30.10
981;DHT22;479;53.514;9.994;2023-04-06T09:53:36;15.80;30.00
981;DHT22;479;53.514;9.994;2023-04-06T09:56:06;15.60;29.50
981;DHT22;479;53.514;9.994;2023-04-06T09:58:37;15.30;29.60
981;DHT22;479;53.514;9.994;2023-04-06T10:01:10;15.10;30.00
981;DHT22;479;53.514;9.994;2023-04-06T10:03:45;15.10;30.00
981;DHT22;479;53.514;9.994;2023-04-06T10:06:22;15.10;31.00
981;DHT22;479;53.514;9.994;2023-04-06T10:08:52;15.50;29.80
981;DHT22;479;53.514;9.994;2023-04-06T10:11:20;15.60;31.00
981;DHT22;479;53.514;9.994;2023-04-06T10:13:48;15.40;29.70
981;DHT22;479;53.514;9.994;2023-04-06T10:16:16;15.40;29.90
981;DHT22;479;53.514;9.994;2023-04-06T10:18:46;15.40;30.00
981;DHT22;479;53.514;9.994;2023-04-06T10:21:16;15.30;29.90
981;DHT22;479;53.514;9.994;2023-04-06T10:23:49;14.90;30.10
981;DHT22;479;53.514;9.994;2023-04-06T10:26:19;15.20;30.30
981;DHT22;479;53.514;9.994;2023-04-06T10:28:48;14.80;29.90
981;DHT22;479;53.514;9.994;2023-04-06T10:31:24;14.50;30.20
981;DHT22;479;53.514;9.994;2023-04-06T10:33:55;14.70;30.80
981;DHT22;479;53.514;9.994;2023-04-06T10:36:24;14.70;30.40
981;DHT22;479;53.514;9.994;2023-04-06T10:38:58;14.90;30.60
981;DHT22;479;53.514;9.994;2023-04-06T10:41:32;15.40;30.30
981;DHT22;479;53.514;9.994;2023-04-06T10:44:00;15.60;30.20
981;DHT22;479;53.514;9.994;2023-04-06T10:46:29;15.60;29.80
981;DHT22;479;53.514;9.994;2023-04-06T10:48:57;15.60;29.60
981;DHT22;479;53.514;9.994;2023-04-06T10:51:27;14.80;29.60
981;DHT22;479;53.514;9.994;2023-04-06T10:53:57;14.50;30.40
981;DHT22;479;53.514;9.994;2023-04-06T10:56:24;14.70;30.80
981;DHT22;479;53.514;9.994;2023-04-06T10:58:54;15.10;30.30
981;DHT22;479;53.514;9.994;2023-04-06T11:01:23;15.20;30.40
981;DHT22;479;53.514;9.994;2023-04-06T11:03:55;15.20;31.00
981;DHT22;479;53.514;9.994;2023-04-06T11:06:26;15.50;31.20
981;DHT22;479;53.514;9.994;2023-04-06T11:08:57;15.50;30.70
981;DHT22;479;53.514;9.994;2023-04-06T11:11:25;15.20;30.00
981;DHT22;479;53.514;9.994;2023-04-06T11:13:53;15.20;30.50
981;DHT22;479;53.514;9.994;2023-04-06T11:16:22;14.90;30.60
981;DHT22;479;53.514;9.994;2023-04-06T11:18:51;15.00;31.30
981;DHT22;479;53.514;9.994;2023-04-06T11:21:19;15.30;31.40
981;DHT22;479;53.514;9.994;2023-04-06T11:23:46;15.00;30.40
981;DHT22;479;53.514;9.994;2023-04-06T11:26:14;15.00;30.40
981;DHT22;479;53.514;9.994;2023-04-06T11:28:42;15.10;30.40
981;DHT22;479;53.514;9.994;2023-04-06T11:31:09;14.80;30.70
981;DHT22;479;53.514;9.994;2023-04-06T11:33:37;14.40;30.90
981;DHT22;479;53.514;9.994;2023-04-06T11:36:06;14.50;31.90
981;DHT22;479;53.514;9.994;2023-04-06T11:38:33;14.10;31.80
981;DHT22;479;53.514;9.994;2023-04-06T11:41:01;13.80;33.20
981;DHT22;479;53.514;9.994;2023-04-06T11:43:31;13.70;32.50
981;DHT22;479;53.514;9.994;2023-04-06T11:46:01;13.70;33.10
981;DHT22;479;53.514;9.994;2023-04-06T11:48:29;13.80;32.50
981;DHT22;479;53.514;9.994;2023-04-06T11:50:57;13.70;32.10
981;DHT22;479;53.514;9.994;2023-04-06T11:53:26;13.70;32.00
981;DHT22;479;53.514;9.994;2023-04-06T11:55:54;13.60;32.30
981;DHT22;479;53.514;9.994;2023-04-06T11:58:21;13.50;33.20
981;DHT22;479;53.514;9.994;2023-04-06T12:00:49;13.40;32.80
981;DHT22;479;53.514;9.994;2023-04-06T12:03:16;13.50;33.30
981;DHT22;479;53.514;9.994;2023-04-06T12:05:43;13.60;32.90
981;DHT22;479;53.514;9.994;2023-04-06T12:08:11;13.60;33.10
981;DHT22;479;53.514;9.994;2023-04-06T12:10:38;13.50;32.90
981;DHT22;479;53.514;9.994;2023-04-06T12:13:05;13.50;33.00
981;DHT22;479;53.514;9.994;2023-04-06T12:15:32;13.60;33.80
981;DHT22;479;53.514;9.994;2023-04-06T12:18:00;13.80;32.90
981;DHT22;479;53.514;9.994;2023-04-06T12:20:27;14.00;32.70
981;DHT22;479;53.514;9.994;2023-04-06T12:22:54;14.00;32.70
981;DHT22;479;53.514;9.994;2023-04-06T12:25:21;13.90;32.40
981;DHT22;479;53.514;9.994;2023-04-06T12:27:48;13.80;32.90
981;DHT22;479;53.514;9.994;2023-04-06T12:30:16;13.70;32.70
981;DHT22;479;53.514;9.994;2023-04-06T12:32:43;13.70;32.70
981;DHT22;479;53.514;9.994;2023-04-06T12:35:12;13.70;33.40
981;DHT22;479;53.514;9.994;2023-04-06T12:37:41;13.60;33.50
981;DHT22;479;53.514;9.994;2023-04-06T12:40:10;13.50;33.40
981;DHT22;479;53.514;9.994;2023-04-06T12:42:38;13.50;33.40
981;DHT22;479;53.514;9.994;2023-04-06T12:45:07;13.50;33.60
981;DHT22;479;53.514;9.994;2023-04-06T12:47:34;13.40;33.00
981;DHT22;479;53.514;9.994;2023-04-06T12:50:04;13.40;33.50
981;DHT22;479;53.514;9.994;2023-04-06T12:52:33;13.50;34.10
981;DHT22;479;53.514;9.994;2023-04-06T12:55:02;13.60;33.70
981;DHT22;479;53.514;9.994;2023-04-06T12:57:34;13.60;33.40
981;DHT22;479;53.514;9.994;2023-04-06T13:00:05;13.70;33.10
981;DHT22;479;53.514;9.994;2023-04-06T13:02:33;13.40;33.10
981;DHT22;479;53.514;9.994;2023-04-06T13:05:00;13.60;33.70
981;DHT22;479;53.514;9.994;2023-04-06T13:07:27;13.40;33.60
981;DHT22;479;53.514;9.994;2023-04-06T13:09:56;13.50;33.70
981;DHT22;479;53.514;9.994;2023-04-06T13:12:23;13.50;33.40
981;DHT22;479;53.514;9.994;2023-04-06T13:14:50;13.40;33.10
981;DHT22;479;53.514;9.994;2023-04-06T13:17:18;13.30;34.10
981;DHT22;479;53.514;9.994;2023-04-06T13:19:46;13.30;34.00
981;DHT22;479;53.514;9.994;2023-04-06T13:22:13;13.20;33.40
981;DHT22;479;53.514;9.994;2023-04-06T13:24:41;13.30;34.40
981;DHT22;479;53.514;9.994;2023-04-06T13:27:09;13.40;34.20
981;DHT22;479;53.514;9.994;2023-04-06T13:29:37;13.40;34.00
981;DHT22;479;53.514;9.994;2023-04-06T13:32:04;13.40;33.70
981;DHT22;479;53.514;9.994;2023-04-06T13:34:31;13.30;34.10
981;DHT22;479;53.514;9.994;2023-04-06T13:36:58;13.40;34.30
981;DHT22;479;53.514;9.994;2023-04-06T13:39:25;13.40;34.70
981;DHT22;479;53.514;9.994;2023-04-06T13:41:53;13.50;34.80
981;DHT22;479;53.514;9.994;2023-04-06T13:44:23;13.50;34.80
981;DHT22;479;53.514;9.994;2023-04-06T13:46:50;13.50;34.90
981;DHT22;479;53.514;9.994;2023-04-06T13:49:17;13.50;34.40
981;DHT22;479;53.514;9.994;2023-04-06T13:51:44;13.60;34.70
981;DHT22;479;53.514;9.994;2023-04-06T13:54:11;13.60;35.20
981;DHT22;479;53.514;9.994;2023-04-06T13:56:38;13.60;35.30
981;DHT22;479;53.514;9.994;2023-04-06T13:59:05;13.70;33.00
981;DHT22;479;53.514;9.994;2023-04-06T14:01:33;13.70;32.00
981;DHT22;479;53.514;9.994;2023-04-06T14:04:00;13.60;32.60
981;DHT22;479;53.514;9.994;2023-04-06T14:06:27;13.50;33.10
981;DHT22;479;53.514;9.994;2023-04-06T14:08:54;13.60;33.60
981;DHT22;479;53.514;9.994;2023-04-06T14:11:21;13.70;33.70
981;DHT22;479;53.514;9.994;2023-04-06T14:13:48;13.80;33.30
981;DHT22;479;53.514;9.994;2023-04-06T14:16:14;13.70;33.50
981;DHT22;479;53.514;9.994;2023-04-06T14:18:46;13.70;33.00
981;DHT22;479;53.514;9.994;2023-04-06T14:21:13;13.60;33.00
981;DHT22;479;53.514;9.994;2023-04-06T14:23:40;13.50;33.40
981;DHT22;479;53.514;9.994;2023-04-06T14:26:08;13.40;33.50
981;DHT22;479;53.514;9.994;2023-04-06T14:28:35;13.40;34.00
981;DHT22;479;53.514;9.994;2023-04-06T14:31:09;13.40;34.10
981;DHT22;479;53.514;9.994;2023-04-06T14:33:37;13.40;34.30
981;DHT22;479;53.514;9.994;2023-04-06T14:36:06;13.50;34.40
981;DHT22;479;53.514;9.994;2023-04-06T14:38:34;13.50;34.00
981;DHT22;479;53.514;9.994;2023-04-06T14:41:01;13.50;33.30
981;DHT22;479;53.514;9.994;2023-04-06T14:43:28;13.60;34.60
981;DHT22;479;53.514;9.994;2023-04-06T14:45:59;13.60;35.10
981;DHT22;479;53.514;9.994;2023-04-06T14:48:26;13.70;34.80
981;DHT22;479;53.514;9.994;2023-04-06T14:50:54;13.60;34.00
981;DHT22;479;53.514;9.994;2023-04-06T14:53:23;13.60;34.30
981;DHT22;479;53.514;9.994;2023-04-06T14:55:50;13.40;34.20
981;DHT22;479;53.514;9.994;2023-04-06T14:58:17;13.40;34.40
981;DHT22;479;53.514;9.994;2023-04-06T15:00:44;13.40;34.50
981;DHT22;479;53.514;9.994;2023-04-06T15:03:12;13.50;34.80
981;DHT22;479;53.514;9.994;2023-04-06T15:05:38;13.50;35.30
981;DHT22;479;53.514;9.994;2023-04-06T15:08:05;13.50;35.40
981;DHT22;479;53.514;9.994;2023-04-06T15:10:36;13.40;35.30
981;DHT22;479;53.514;9.994;2023-04-06T15:13:03;13.40;35.10
981;DHT22;479;53.514;9.994;2023-04-06T15:15:30;13.30;34.90
981;DHT22;479;53.514;9.994;2023-04-06T15:17:58;13.30;35.10
981;DHT22;479;53.514;9.994;2023-04-06T15:20:27;13.20;35.10
981;DHT22;479;53.514;9.994;2023-04-06T15:22:54;13.20;35.80
981;DHT22;479;53.514;9.994;2023-04-06T15:25:21;13.20;35.90
981;DHT22;479;53.514;9.994;2023-04-06T15:27:50;13.10;35.40
981;DHT22;479;53.514;9.994;2023-04-06T15:30:17;13.10;36.00
981;DHT22;479;53.514;9.994;2023-04-06T15:32:52;13.10;36.00
981;DHT22;479;53.514;9.994;2023-04-06T15:35:19;13.20;36.40
981;DHT22;479;53.514;9.994;2023-04-06T15:37:46;13.30;36.40
981;DHT22;479;53.514;9.994;2023-04-06T15:40:13;13.20;35.50
981;DHT22;479;53.514;9.994;2023-04-06T15:42:41;13.20;36.70
981;DHT22;479;53.514;9.994;2023-04-06T15:45:10;13.10;36.00
981;DHT22;479;53.514;9.994;2023-04-06T15:47:37;13.10;36.60
981;DHT22;479;53.514;9.994;2023-04-06T15:50:05;13.10;37.00
981;DHT22;479;53.514;9.994;2023-04-06T15:52:32;13.10;36.60
981;DHT22;479;53.514;9.994;2023-04-06T15:54:59;13.10;36.50
981;DHT22;479;53.514;9.994;2023-04-06T15:57:26;13.10;36.60
981;DHT22;479;53.514;9.994;2023-04-06T15:59:53;13.10;36.80
981;DHT22;479;53.514;9.994;2023-04-06T16:02:22;13.10;36.80
981;DHT22;479;53.514;9.994;2023-04-06T16:04:49;13.00;36.40
981;DHT22;479;53.514;9.994;2023-04-06T16:07:16;12.90;36.80
981;DHT22;479;53.514;9.994;2023-04-06T16:09:43;12.90;37.10
981;DHT22;479;53.514;9.994;2023-04-06T16:12:10;13.00;37.10
981;DHT22;479;53.514;9.994;2023-04-06T16:14:37;13.00;36.80
981;DHT22;479;53.514;9.994;2023-04-06T16:17:05;13.00;36.70
981;DHT22;479;53.514;9.994;2023-04-06T16:19:33;12.90;37.10
981;DHT22;479;53.514;9.994;2023-04-06T16:22:00;12.90;37.80
981;DHT22;479;53.514;9.994;2023-04-06T16:24:27;12.90;37.80
981;DHT22;479;53.514;9.994;2023-04-06T16:26:54;12.80;37.50
981;DHT22;479;53.514;9.994;2023-04-06T16:29:22;12.80;38.30
981;DHT22;479;53.514;9.994;2023-04-06T16:31:49;12.80;38.10
981;DHT22;479;53.514;9.994;2023-04-06T16:34:15;12.80;38.00
981;DHT22;479;53.514;9.994;2023-04-06T16:36:44;12.80;38.00
981;DHT22;479;53.514;9.994;2023-04-06T16:39:12;12.70;38.10
981;DHT22;479;53.514;9.994;2023-04-06T16:41:39;12.60;38.60
981;DHT22;479;53.514;9.994;2023-04-06T16:44:06;12.60;38.90
981;DHT22;479;53.514;9.994;2023-04-06T16:46:35;12.60;39.20
981;DHT22;479;53.514;9.994;2023-04-06T16:49:03;12.60;39.60
981;DHT22;479;53.514;9.994;2023-04-06T16:51:31;12.60;39.30
981;DHT22;479;53.514;9.994;2023-04-06T16:54:00;12.50;39.20